sensor_id;sensor_type;location;lat;lon;timestamp;temperature;humidity
46117;DHT22;32591;48.102;11.772;2023-09-30T00:00:01;17.70;99.90
46117;DHT22;32591;48.102;11.772;2023-09-30T00:02:31;17.70;99.90
46117;DHT22;32591;48.102;11.772;2023-09-30T00:04:58;17.70;99.90
46117;DHT22;32591;48.102;11.772;2023-09-30T00:07:25;17.70;99.90
46117;DHT22;32591;48.102;11.772;2023-09-30T00:09:53;17.70;99.90
46117;DHT22;32591;48.102;11.772;2023-09-30T00:12:20;17.70;99.90
46117;DHT22;32591;48.102;11.772;2023-09-30T00:14:46;17.70;99.90
46117;DHT22;32591;48.102;11.772;2023-09-30T00:17:14;17.60;99.90
46117;DHT22;32591;48.102;11.772;2023-09-30T00:19:42;17.60;99.90
46117;DHT22;32591;48.102;11.772;2023-09-30T00:22:10;17.60;99.90
46117;DHT22;32591;48.102;11.772;2023-09-30T00:24:37;17.60;99.90
46117;DHT22;32591;48.102;11.772;2023-09-30T00:27:04;17.70;99.90
46117;DHT22;32591;48.102;11.772;2023-09-30T00:29:31;17.70;99.90
46117;DHT22;32591;48.102;11.772;2023-09-30T00:31:59;17.70;99.90
46117;DHT22;32591;48.102;11.772;2023-09-30T00:34:26;17.80;99.90
46117;DHT22;32591;48.102;11.772;2023-09-30T00:36:54;17.90;99.90
46117;DHT22;32591;48.102;11.772;2023-09-30T00:39:21;17.90;99.90
46117;DHT22;32591;48.102;11.772;2023-09-30T00:41:48;18.00;99.90
46117;DHT22;32591;48.102;11.772;2023-09-30T00:44:15;18.00;99.90
46117;DHT22;32591;48.102;11.772;2023-09-30T00:46:42;18.00;99.90
46117;DHT22;32591;48.102;11.772;2023-09-30T00:49:09;17.90;99.90
46117;DHT22;32591;48.102;11.772;2023-09-30T00:51:37;17.90;99.90
46117;DHT22;32591;48.102;11.772;2023-09-30T00:54:06;17.80;99.90
46117;DHT22;32591;48.102;11.772;2023-09-30T00:56:35;17.90;99.90
46117;DHT22;32591;48.102;11.772;2023-09-30T00:59:08;18.00;99.90
46117;DHT22;32591;48.102;11.772;2023-09-30T01:01:35;18.00;99.90
46117;DHT22;32591;48.102;11.772;2023-09-30T01:04:02;17.90;99.90
46117;DHT22;32591;48.102;11.772;2023-09-30T01:06:29;17.90;99.90
46117;DHT22;32591;48.102;11.772;2023-09-30T01:08:57;17.80;99.90
46117;DHT22;32591;48.102;11.772;2023-09-30T01:11:25;17.80;99.90
46117;DHT22;32591;48.102;11.772;2023-09-30T01:13:52;17.80;99.90
46117;DHT22;32591;48.102;11.772;2023-09-30T01:16:21;17.80;99.90
46117;DHT22;32591;48.102;11.772;2023-09-30T01:18:49;17.80;99.90
46117;DHT22;32591;48.102;11.772;2023-09-30T01:21:16;17.70;99.90
46117;DHT22;32591;48.102;11.772;2023-09-30T01:23:45;17.80;99.90
46117;DHT22;32591;48.102;11.772;2023-09-30T01:26:13;17.80;99.90
46117;DHT22;32591;48.102;11.772;2023-09-30T01:28:41;17.80;99.90
46117;DHT22;32591;48.102;11.772;2023-09-30T01:31:08;17.80;99.90
46117;DHT22;32591;48.102;11.772;2023-09-30T01:33:35;17.80;99.90
46117;DHT22;32591;48.102;11.772;2023-09-30T01:36:02;17.90;99.90
46117;DHT22;32591;48.102;11.772;2023-09-30T01:38:29;17.90;99.90
46117;DHT22;32591;48.102;11.772;2023-09-30T01:40:58;17.90;99.90
46117;DHT22;32591;48.102;11.772;2023-09-30T01:43:25;18.00;99.90
46117;DHT22;32591;48.102;11.772;2023-09-30T01:45:52;18.00;99.90
46117;DHT22;32591;48.102;11.772;2023-09-30T01:48:18;18.00;99.90
46117;DHT22;32591;48.102;11.772;2023-09-30T01:50:45;18.00;99.90
46117;DHT22;32591;48.102;11.772;2023-09-30T01:53:13;18.00;99.90
46117;DHT22;32591;48.102;11.772;2023-09-30T01:55:40;18.00;99.90
46117;DHT22;32591;48.102;11.772;2023-09-30T01:58:08;18.00;99.90
46117;DHT22;32591;48.102;11.772;2023-09-30T02:00:36;17.90;99.90
46117;DHT22;32591;48.102;11.772;2023-09-30T02:03:03;17.90;99.90
46117;DHT22;32591;48.102;11.772;2023-09-30T02:05:30;17.80;99.90
46117;DHT22;32591;48.102;11.772;2023-09-30T02:07:58;17.80;99.90
46117;DHT22;32591;48.102;11.772;2023-09-30T02:10:25;17.80;99.90
46117;DHT22;32591;48.102;11.772;2023-09-30T02:12:52;17.80;99.90
46117;DHT22;32591;48.102;11.772;2023-09-30T02:15:20;17.80;99.90
46117;DHT22;32591;48.102;11.772;2023-09-30T02:17:47;17.70;99.90
46117;DHT22;32591;48.102;11.772;2023-09-30T02:20:14;17.80;99.90
46117;DHT22;32591;48.102;11.772;2023-09-30T02:22:45;17.70;99.90
46117;DHT22;32591;48.102;11.772;2023-09-30T02:25:13;17.70;99.90
46117;DHT22;32591;48.102;11.772;2023-09-30T02:27:41;17.60;99.90
46117;DHT22;32591;48.102;11.772;2023-09-30T02:30:10;17.60;99.90
46117;DHT22;32591;48.102;11.772;2023-09-30T02:32:43;17.60;99.90
46117;DHT22;32591;48.102;11.772;2023-09-30T02:35:11;17.60;99.90
46117;DHT22;32591;48.102;11.772;2023-09-30T02:37:40;17.70;99.90
46117;DHT22;32591;48.102;11.772;2023-09-30T02:40:08;17.70;99.90
46117;DHT22;32591;48.102;11.772;2023-09-30T02:42:36;17.60;99.90
46117;DHT22;32591;48.102;11.772;2023-09-30T02:45:04;17.60;99.90
46117;DHT22;32591;48.102;11.772;2023-09-30T02:47:31;17.60;99.90
46117;DHT22;32591;48.102;11.772;2023-09-30T02:49:59;17.50;99.90
46117;DHT22;32591;48.102;11.772;2023-09-30T02:52:26;17.50;99.90
46117;DHT22;32591;48.102;11.772;2023-09-30T02:54:54;17.50;99.90
46117;DHT22;32591;48.102;11.772;2023-09-30T02:57:23;17.40;99.90
46117;DHT22;32591;48.102;11.772;2023-09-30T02:59:50;17.40;99.90
46117;DHT22;32591;48.102;11.772;2023-09-30T03:02:18;17.40;99.90
46117;DHT22;32591;48.102;11.772;2023-09-30T03:04:46;17.40;99.90
46117;DHT22;32591;48.102;11.772;2023-09-30T03:07:18;17.40;99.90
46117;DHT22;32591;48.102;11.772;2023-09-30T03:09:48;17.30;99.90
46117;DHT22;32591;48.102;11.772;2023-09-30T03:12:15;17.30;99.90
46117;DHT22;32591;48.102;11.772;2023-09-30T03:14:42;17.30;99.90
46117;DHT22;32591;48.102;11.772;2023-09-30T03:17:10;17.40;99.90
46117;DHT22;32591;48.102;11.772;2023-09-30T03:19:37;17.40;99.90
46117;DHT22;32591;48.102;11.772;2023-09-30T03:22:05;17.40;99.90
46117;DHT22;32591;48.102;11.772;2023-09-30T03:24:38;17.40;99.90
46117;DHT22;32591;48.102;11.772;2023-09-30T03:27:05;17.40;99.90
46117;DHT22;32591;48.102;11.772;2023-09-30T03:29:32;17.50;99.90
46117;DHT22;32591;48.102;11.772;2023-09-30T03:31:58;17.40;99.90
46117;DHT22;32591;48.102;11.772;2023-09-30T03:34:25;17.50;99.90
46117;DHT22;32591;48.102;11.772;2023-09-30T03:36:54;17.40;99.90
46117;DHT22;32591;48.102;11.772;2023-09-30T03:39:24;17.40;99.90
46117;DHT22;32591;48.102;11.772;2023-09-30T03:41:55;17.50;99.90
46117;DHT22;32591;48.102;11.772;2023-09-30T03:44:23;17.40;99.90
46117;DHT22;32591;48.102;11.772;2023-09-30T03:46:50;17.40;99.90
46117;DHT22;32591;48.102;11.772;2023-09-30T03:49:18;17.30;99.90
46117;DHT22;32591;48.102;11.772;2023-09-30T03:51:46;17.30;99.90
46117;DHT22;32591;48.102;11.772;2023-09-30T03:54:16;17.20;99.90
46117;DHT22;32591;48.102;11.772;2023-09-30T03:56:44;17.10;99.90
46117;DHT22;32591;48.102;11.772;2023-09-30T03:59:13;17.20;99.90
46117;DHT22;32591;48.102;11.772;2023-09-30T04:01:41;17.10;99.90
46117;DHT22;32591;48.102;11.772;2023-09-30T04:04:09;17.00;99.90
46117;DHT22;32591;48.102;11.772;2023-09-30T04:06:36;17.00;99.90
46117;DHT22;32591;48.102;11.772;2023-09-30T04:09:04;17.10;99.90
46117;DHT22;32591;48.102;11.772;2023-09-30T04:11:35;17.10;99.90
46117;DHT22;32591;48.102;11.772;2023-09-30T04:14:03;17.00;99.90
46117;DHT22;32591;48.102;11.772;2023-09-30T04:16:32;17.00;99.90
46117;DHT22;32591;48.102;11.772;2023-09-30T04:18:59;17.00;99.90
46117;DHT22;32591;48.102;11.772;2023-09-30T04:21:27;17.00;99.90
46117;DHT22;32591;48.102;11.772;2023-09-30T04:23:55;16.90;99.90
46117;DHT22;32591;48.102;11.772;2023-09-30T04:26:23;16.90;99.90
46117;DHT22;32591;48.102;11.772;2023-09-30T04:28:50;17.00;99.90
46117;DHT22;32591;48.102;11.772;2023-09-30T04:31:19;17.10;99.90
46117;DHT22;32591;48.102;11.772;2023-09-30T04:33:48;17.10;99.90
46117;DHT22;32591;48.102;11.772;2023-09-30T04:36:16;17.10;99.90
46117;DHT22;32591;48.102;11.772;2023-09-30T04:38:43;17.10;99.90
46117;DHT22;32591;48.102;11.772;2023-09-30T04:41:10;17.10;99.90
46117;DHT22;32591;48.102;11.772;2023-09-30T04:43:37;17.20;99.90
46117;DHT22;32591;48.102;11.772;2023-09-30T04:46:05;17.20;99.90
46117;DHT22;32591;48.102;11.772;2023-09-30T04:48:33;17.20;99.90
46117;DHT22;32591;48.102;11.772;2023-09-30T04:51:05;17.20;99.90
46117;DHT22;32591;48.102;11.772;2023-09-30T04:53:33;17.20;99.90
46117;DHT22;32591;48.102;11.772;2023-09-30T04:56:00;17.20;99.90
46117;DHT22;32591;48.102;11.772;2023-09-30T04:58:27;17.20;99.90
46117;DHT22;32591;48.102;11.772;2023-09-30T05:00:55;17.20;99.90
46117;DHT22;32591;48.102;11.772;2023-09-30T05:03:22;17.10;99.90
46117;DHT22;32591;48.102;11.772;2023-09-30T05:05:50;17.20;99.90
46117;DHT22;32591;48.102;11.772;2023-09-30T05:08:23;17.00;99.90
46117;DHT22;32591;48.102;11.772;2023-09-30T05:10:50;17.00;99.90
46117;DHT22;32591;48.102;11.772;2023-09-30T05:13:21;16.90;99.90
46117;DHT22;32591;48.102;11.772;2023-09-30T05:15:49;16.90;99.90
46117;DHT22;32591;48.102;11.772;2023-09-30T05:18:17;16.90;99.90
46117;DHT22;32591;48.102;11.772;2023-09-30T05:20:44;16.90;99.90
46117;DHT22;32591;48.102;11.772;2023-09-30T05:23:11;16.80;99.90
46117;DHT22;32591;48.102;11.772;2023-09-30T05:25:41;16.80;99.90
46117;DHT22;32591;48.102;11.772;2023-09-30T05:28:08;16.70;99.90
46117;DHT22;32591;48.102;11.772;2023-09-30T05:30:37;16.70;99.90
46117;DHT22;32591;48.102;11.772;2023-09-30T05:33:04;16.70;99.90
46117;DHT22;32591;48.102;11.772;2023-09-30T05:35:31;16.70;99.90
46117;DHT22;32591;48.102;11.772;2023-09-30T05:37:59;16.70;99.90
46117;DHT22;32591;48.102;11.772;2023-09-30T05:40:25;16.70;99.90
46117;DHT22;32591;48.102;11.772;2023-09-30T05:42:57;16.80;99.90
46117;DHT22;32591;48.102;11.772;2023-09-30T05:45:25;16.80;99.90
46117;DHT22;32591;48.102;11.772;2023-09-30T05:47:53;16.80;99.90
46117;DHT22;32591;48.102;11.772;2023-09-30T05:50:21;16.80;99.90
46117;DHT22;32591;48.102;11.772;2023-09-30T05:52:52;16.80;99.90
46117;DHT22;32591;48.102;11.772;2023-09-30T05:55:20;16.80;99.90
46117;DHT22;32591;48.102;11.772;2023-09-30T05:57:47;16.80;99.90
46117;DHT22;32591;48.102;11.772;2023-09-30T06:00:17;16.90;99.90
46117;DHT22;32591;48.102;11.772;2023-09-30T06:02:48;16.80;99.90
46117;DHT22;32591;48.102;11.772;2023-09-30T06:05:17;16.80;99.90
46117;DHT22;32591;48.102;11.772;2023-09-30T06:07:45;16.80;99.90
46117;DHT22;32591;48.102;11.772;2023-09-30T06:10:13;16.80;99.90
46117;DHT22;32591;48.102;11.772;2023-09-30T06:12:44;16.80;99.90
46117;DHT22;32591;48.102;11.772;2023-09-30T06:15:12;16.80;99.90
46117;DHT22;32591;48.102;11.772;2023-09-30T06:17:41;16.80;99.90
46117;DHT22;32591;48.102;11.772;2023-09-30T06:20:10;16.80;99.90
46117;DHT22;32591;48.102;11.772;2023-09-30T06:22:43;16.80;99.90
46117;DHT22;32591;48.102;11.772;2023-09-30T06:25:11;16.80;99.90
46117;DHT22;32591;48.102;11.772;2023-09-30T06:27:41;16.80;99.90
46117;DHT22;32591;48.102;11.772;2023-09-30T06:30:10;16.90;99.90
46117;DHT22;32591;48.102;11.772;2023-09-30T06:32:37;16.90;99.90
46117;DHT22;32591;48.102;11.772;2023-09-30T06:35:07;16.80;99.90
46117;DHT22;32591;48.102;11.772;2023-09-30T06:37:36;16.90;99.90
46117;DHT22;32591;48.102;11.772;2023-09-30T06:40:05;16.90;99.90
46117;DHT22;32591;48.102;11.772;2023-09-30T06:42:34;16.80;99.90
46117;DHT22;32591;48.102;11.772;2023-09-30T06:45:03;16.70;99.90
46117;DHT22;32591;48.102;11.772;2023-09-30T06:47:31;16.60;99.90
46117;DHT22;32591;48.102;11.772;2023-09-30T06:49:59;16.50;99.90
46117;DHT22;32591;48.102;11.772;2023-09-30T06:52:34;16.50;99.90
46117;DHT22;32591;48.102;11.772;2023-09-30T06:55:04;16.50;99.90
46117;DHT22;32591;48.102;11.772;2023-09-30T06:57:33;16.60;99.90
46117;DHT22;32591;48.102;11.772;2023-09-30T07:00:00;16.80;99.90
46117;DHT22;32591;48.102;11.772;2023-09-30T07:02:29;16.80;99.90
46117;DHT22;32591;48.102;11.772;2023-09-30T07:04:56;16.80;99.90
46117;DHT22;32591;48.102;11.772;2023-09-30T07:07:23;16.80;99.90
46117;DHT22;32591;48.102;11.772;2023-09-30T07:09:52;16.80;99.90
46117;DHT22;32591;48.102;11.772;2023-09-30T07:12:18;16.80;99.90
46117;DHT22;32591;48.102;11.772;2023-09-30T07:14:46;16.80;99.90
46117;DHT22;32591;48.102;11.772;2023-09-30T07:17:13;16.90;99.90
46117;DHT22;32591;48.102;11.772;2023-09-30T07:19:39;16.90;99.90
46117;DHT22;32591;48.102;11.772;2023-09-30T07:22:06;16.80;99.90
46117;DHT22;32591;48.102;11.772;2023-09-30T07:24:34;16.90;99.90
46117;DHT22;32591;48.102;11.772;2023-09-30T07:27:02;16.80;99.90
46117;DHT22;32591;48.102;11.772;2023-09-30T07:29:29;16.80;99.90
46117;DHT22;32591;48.102;11.772;2023-09-30T07:31:56;16.90;99.90
46117;DHT22;32591;48.102;11.772;2023-09-30T07:34:23;16.80;99.90
46117;DHT22;32591;48.102;11.772;2023-09-30T07:36:50;16.80;99.90
46117;DHT22;32591;48.102;11.772;2023-09-30T07:39:17;16.80;99.90
46117;DHT22;32591;48.102;11.772;2023-09-30T07:41:44;16.90;99.90
46117;DHT22;32591;48.102;11.772;2023-09-30T07:44:13;17.10;99.90
46117;DHT22;32591;48.102;11.772;2023-09-30T07:46:40;17.20;99.90
46117;DHT22;32591;48.102;11.772;2023-09-30T07:49:09;17.20;99.90
46117;DHT22;32591;48.102;11.772;2023-09-30T07:51:36;17.10;99.90
46117;DHT22;32591;48.102;11.772;2023-09-30T07:54:05;17.00;99.90
46117;DHT22;32591;48.102;11.772;2023-09-30T07:56:32;17.00;99.90
46117;DHT22;32591;48.102;11.772;2023-09-30T07:58:59;17.00;99.90
46117;DHT22;32591;48.102;11.772;2023-09-30T08:01:28;17.00;99.90
46117;DHT22;32591;48.102;11.772;2023-09-30T08:03:56;17.00;99.90
46117;DHT22;32591;48.102;11.772;2023-09-30T08:06:23;16.90;99.90
46117;DHT22;32591;48.102;11.772;2023-09-30T08:08:50;16.90;99.90
46117;DHT22;32591;48.102;11.772;2023-09-30T08:11:18;16.90;99.90
46117;DHT22;32591;48.102;11.772;2023-09-30T08:13:46;16.90;99.90
46117;DHT22;32591;48.102;11.772;2023-09-30T08:16:13;16.90;99.90
46117;DHT22;32591;48.102;11.772;2023-09-30T08:18:41;16.90;99.90
46117;DHT22;32591;48.102;11.772;2023-09-30T08:21:09;16.90;99.90
46117;DHT22;32591;48.102;11.772;2023-09-30T08:23:37;17.00;99.90
46117;DHT22;32591;48.102;11.772;2023-09-30T08:26:05;17.00;99.90
46117;DHT22;32591;48.102;11.772;2023-09-30T08:28:32;17.00;99.90
46117;DHT22;32591;48.102;11.772;2023-09-30T08:31:03;17.10;99.90
46117;DHT22;32591;48.102;11.772;2023-09-30T08:33:30;17.10;99.90
46117;DHT22;32591;48.102;11.772;2023-09-30T08:36:02;17.10;99.90
46117;DHT22;32591;48.102;11.772;2023-09-30T08:38:33;17.10;99.90
46117;DHT22;32591;48.102;11.772;2023-09-30T08:41:01;17.20;99.90
46117;DHT22;32591;48.102;11.772;2023-09-30T08:43:29;17.20;99.90
46117;DHT22;32591;48.102;11.772;2023-09-30T08:45:58;17.30;99.90
46117;DHT22;32591;48.102;11.772;2023-09-30T08:48:26;17.40;99.90
46117;DHT22;32591;48.102;11.772;2023-09-30T08:50:54;17.40;99.90
46117;DHT22;32591;48.102;11.772;2023-09-30T08:53:23;17.60;99.90
46117;DHT22;32591;48.102;11.772;2023-09-30T08:55:53;17.60;99.90
46117;DHT22;32591;48.102;11.772;2023-09-30T08:58:23;17.60;99.90
46117;DHT22;32591;48.102;11.772;2023-09-30T09:00:51;17.60;99.90
46117;DHT22;32591;48.102;11.772;2023-09-30T09:03:19;17.70;99.90
46117;DHT22;32591;48.102;11.772;2023-09-30T09:05:46;17.70;99.90
46117;DHT22;32591;48.102;11.772;2023-09-30T09:08:13;17.60;99.90
46117;DHT22;32591;48.102;11.772;2023-09-30T09:10:54;17.70;99.90
46117;DHT22;32591;48.102;11.772;2023-09-30T09:13:22;17.70;99.90
46117;DHT22;32591;48.102;11.772;2023-09-30T09:16:05;17.70;99.90
46117;DHT22;32591;48.102;11.772;2023-09-30T09:18:34;17.60;99.90
46117;DHT22;32591;48.102;11.772;2023-09-30T09:21:09;17.60;99.90
46117;DHT22;32591;48.102;11.772;2023-09-30T09:23:41;17.70;99.90
46117;DHT22;32591;48.102;11.772;2023-09-30T09:26:11;17.90;99.90
46117;DHT22;32591;48.102;11.772;2023-09-30T09:28:39;18.10;99.90
46117;DHT22;32591;48.102;11.772;2023-09-30T09:31:21;18.20;99.90
46117;DHT22;32591;48.102;11.772;2023-09-30T09:33:49;18.20;99.90
46117;DHT22;32591;48.102;11.772;2023-09-30T09:36:17;18.20;99.90
46117;DHT22;32591;48.102;11.772;2023-09-30T09:38:48;18.10;99.90
46117;DHT22;32591;48.102;11.772;2023-09-30T09:41:20;18.10;99.90
46117;DHT22;32591;48.102;11.772;2023-09-30T09:43:49;18.20;99.90
46117;DHT22;32591;48.102;11.772;2023-09-30T09:46:17;18.20;99.90
46117;DHT22;32591;48.102;11.772;2023-09-30T09:48:46;18.10;99.90
46117;DHT22;32591;48.102;11.772;2023-09-30T09:51:14;18.00;99.90
46117;DHT22;32591;48.102;11.772;2023-09-30T09:53:42;18.00;99.90
46117;DHT22;32591;48.102;11.772;2023-09-30T09:56:09;18.10;99.90
46117;DHT22;32591;48.102;11.772;2023-09-30T09:58:39;18.20;99.90
46117;DHT22;32591;48.102;11.772;2023-09-30T10:01:09;18.40;99.90
46117;DHT22;32591;48.102;11.772;2023-09-30T10:03:37;18.60;99.90
46117;DHT22;32591;48.102;11.772;2023-09-30T10:06:05;18.80;99.90
46117;DHT22;32591;48.102;11.772;2023-09-30T10:08:39;18.90;99.90
46117;DHT22;32591;48.102;11.772;2023-09-30T10:11:08;19.20;99.90
46117;DHT22;32591;48.102;11.772;2023-09-30T10:13:55;19.50;99.90
46117;DHT22;32591;48.102;11.772;2023-09-30T10:16:48;19.70;99.90
46117;DHT22;32591;48.102;11.772;2023-09-30T10:19:17;19.70;99.90
46117;DHT22;32591;48.102;11.772;2023-09-30T10:22:24;19.70;99.90
46117;DHT22;32591;48.102;11.772;2023-09-30T10:24:55;19.60;99.90
46117;DHT22;32591;48.102;11.772;2023-09-30T10:27:35;19.60;99.90
46117;DHT22;32591;48.102;11.772;2023-09-30T10:30:08;19.70;99.90
46117;DHT22;32591;48.102;11.772;2023-09-30T10:33:07;19.70;99.90
46117;DHT22;32591;48.102;11.772;2023-09-30T10:35:45;19.70;99.90
46117;DHT22;32591;48.102;11.772;2023-09-30T10:38:38;19.60;99.90
46117;DHT22;32591;48.102;11.772;2023-09-30T10:41:09;19.70;99.90
46117;DHT22;32591;48.102;11.772;2023-09-30T10:43:38;19.80;99.90
46117;DHT22;32591;48.102;11.772;2023-09-30T10:46:33;20.00;99.90
46117;DHT22;32591;48.102;11.772;2023-09-30T10:49:30;19.90;99.90
46117;DHT22;32591;48.102;11.772;2023-09-30T10:52:01;19.80;99.90
46117;DHT22;32591;48.102;11.772;2023-09-30T10:54:29;19.70;99.90
46117;DHT22;32591;48.102;11.772;2023-09-30T10:56:58;19.60;99.90
46117;DHT22;32591;48.102;11.772;2023-09-30T10:59:27;19.60;99.90
46117;DHT22;32591;48.102;11.772;2023-09-30T11:01:57;19.60;99.90
46117;DHT22;32591;48.102;11.772;2023-09-30T11:04:24;19.60;99.90
46117;DHT22;32591;48.102;11.772;2023-09-30T11:06:52;19.60;99.90
46117;DHT22;32591;48.102;11.772;2023-09-30T11:09:20;19.40;99.90
46117;DHT22;32591;48.102;11.772;2023-09-30T11:11:49;19.40;99.90
46117;DHT22;32591;48.102;11.772;2023-09-30T11:14:21;19.40;99.90
46117;DHT22;32591;48.102;11.772;2023-09-30T11:16:50;19.60;99.90
46117;DHT22;32591;48.102;11.772;2023-09-30T11:19:20;19.90;99.90
46117;DHT22;32591;48.102;11.772;2023-09-30T11:21:48;20.20;99.90
46117;DHT22;32591;48.102;11.772;2023-09-30T11:24:16;20.30;99.90
46117;DHT22;32591;48.102;11.772;2023-09-30T11:26:44;20.40;99.90
46117;DHT22;32591;48.102;11.772;2023-09-30T11:29:12;20.40;99.90
46117;DHT22;32591;48.102;11.772;2023-09-30T11:31:42;20.30;99.90
46117;DHT22;32591;48.102;11.772;2023-09-30T11:34:10;20.20;99.90
46117;DHT22;32591;48.102;11.772;2023-09-30T11:36:40;20.20;99.90
46117;DHT22;32591;48.102;11.772;2023-09-30T11:39:09;20.10;99.90
46117;DHT22;32591;48.102;11.772;2023-09-30T11:41:37;19.90;99.90
46117;DHT22;32591;48.102;11.772;2023-09-30T11:44:08;19.90;99.90
46117;DHT22;32591;48.102;11.772;2023-09-30T11:46:51;20.00;99.90
46117;DHT22;32591;48.102;11.772;2023-09-30T11:49:28;20.10;99.90
46117;DHT22;32591;48.102;11.772;2023-09-30T11:51:59;20.40;99.90
46117;DHT22;32591;48.102;11.772;2023-09-30T11:54:31;20.30;99.90
46117;DHT22;32591;48.102;11.772;2023-09-30T11:57:00;20.00;99.90
46117;DHT22;32591;48.102;11.772;2023-09-30T11:59:27;20.00;99.90
46117;DHT22;32591;48.102;11.772;2023-09-30T12:01:54;19.90;99.90
46117;DHT22;32591;48.102;11.772;2023-09-30T12:04:21;19.90;99.90
46117;DHT22;32591;48.102;11.772;2023-09-30T12:06:49;19.70;99.90
46117;DHT22;32591;48.102;11.772;2023-09-30T12:09:18;19.60;99.90
46117;DHT22;32591;48.102;11.772;2023-09-30T12:11:48;19.60;99.90
46117;DHT22;32591;48.102;11.772;2023-09-30T12:14:15;19.60;99.90
46117;DHT22;32591;48.102;11.772;2023-09-30T12:16:43;19.60;99.90
46117;DHT22;32591;48.102;11.772;2023-09-30T12:19:11;19.70;99.90
46117;DHT22;32591;48.102;11.772;2023-09-30T12:21:39;19.90;99.90
46117;DHT22;32591;48.102;11.772;2023-09-30T12:24:07;20.10;99.90
46117;DHT22;32591;48.102;11.772;2023-09-30T12:26:36;20.20;99.90
46117;DHT22;32591;48.102;11.772;2023-09-30T12:29:04;20.20;99.90
46117;DHT22;32591;48.102;11.772;2023-09-30T12:31:31;20.20;99.90
46117;DHT22;32591;48.102;11.772;2023-09-30T12:33:59;20.10;99.90
46117;DHT22;32591;48.102;11.772;2023-09-30T12:36:26;20.30;99.90
46117;DHT22;32591;48.102;11.772;2023-09-30T12:38:53;20.50;99.90
46117;DHT22;32591;48.102;11.772;2023-09-30T12:41:20;20.60;99.80
46117;DHT22;32591;48.102;11.772;2023-09-30T12:43:48;20.90;99.00
46117;DHT22;32591;48.102;11.772;2023-09-30T12:46:15;21.00;98.40
46117;DHT22;32591;48.102;11.772;2023-09-30T12:48:43;21.20;98.10
46117;DHT22;32591;48.102;11.772;2023-09-30T12:51:11;21.20;98.40
46117;DHT22;32591;48.102;11.772;2023-09-30T12:53:38;21.20;98.50
46117;DHT22;32591;48.102;11.772;2023-09-30T12:56:05;21.40;98.60
46117;DHT22;32591;48.102;11.772;2023-09-30T12:58:32;21.50;98.20
46117;DHT22;32591;48.102;11.772;2023-09-30T13:01:01;21.50;98.30
46117;DHT22;32591;48.102;11.772;2023-09-30T13:03:28;21.20;97.80
46117;DHT22;32591;48.102;11.772;2023-09-30T13:05:55;20.90;97.70
46117;DHT22;32591;48.102;11.772;2023-09-30T13:08:22;20.70;98.00
46117;DHT22;32591;48.102;11.772;2023-09-30T13:10:49;20.60;98.30
46117;DHT22;32591;48.102;11.772;2023-09-30T13:13:18;20.60;98.40
46117;DHT22;32591;48.102;11.772;2023-09-30T13:15:45;20.40;98.50
46117;DHT22;32591;48.102;11.772;2023-09-30T13:18:13;20.40;98.70
46117;DHT22;32591;48.102;11.772;2023-09-30T13:20:40;20.30;98.20
46117;DHT22;32591;48.102;11.772;2023-09-30T13:23:07;20.20;98.10
46117;DHT22;32591;48.102;11.772;2023-09-30T13:25:34;20.20;98.20
46117;DHT22;32591;48.102;11.772;2023-09-30T13:28:01;20.20;98.30
46117;DHT22;32591;48.102;11.772;2023-09-30T13:30:28;20.20;97.80
46117;DHT22;32591;48.102;11.772;2023-09-30T13:32:55;20.20;98.00
46117;DHT22;32591;48.102;11.772;2023-09-30T13:35:24;20.20;97.70
46117;DHT22;32591;48.102;11.772;2023-09-30T13:37:51;20.20;98.20
46117;DHT22;32591;48.102;11.772;2023-09-30T13:40:18;20.30;98.20
46117;DHT22;32591;48.102;11.772;2023-09-30T13:42:45;20.30;97.70
46117;DHT22;32591;48.102;11.772;2023-09-30T13:45:12;20.30;97.30
46117;DHT22;32591;48.102;11.772;2023-09-30T13:47:42;20.20;97.50
46117;DHT22;32591;48.102;11.772;2023-09-30T13:50:10;20.30;97.70
46117;DHT22;32591;48.102;11.772;2023-09-30T13:52:38;20.40;97.00
46117;DHT22;32591;48.102;11.772;2023-09-30T13:55:05;20.40;97.10
46117;DHT22;32591;48.102;11.772;2023-09-30T13:57:34;20.50;97.50
46117;DHT22;32591;48.102;11.772;2023-09-30T14:00:02;20.40;97.60
46117;DHT22;32591;48.102;11.772;2023-09-30T14:02:32;20.40;97.90
46117;DHT22;32591;48.102;11.772;2023-09-30T14:04:59;20.80;97.40
46117;DHT22;32591;48.102;11.772;2023-09-30T14:07:27;20.90;97.80
46117;DHT22;32591;48.102;11.772;2023-09-30T14:09:56;20.90;97.60
46117;DHT22;32591;48.102;11.772;2023-09-30T14:12:23;21.00;98.50
46117;DHT22;32591;48.102;11.772;2023-09-30T14:14:50;21.10;97.50
46117;DHT22;32591;48.102;11.772;2023-09-30T14:17:17;21.50;97.20
46117;DHT22;32591;48.102;11.772;2023-09-30T14:19:44;21.60;97.00
46117;DHT22;32591;48.102;11.772;2023-09-30T14:22:11;21.50;97.30
46117;DHT22;32591;48.102;11.772;2023-09-30T14:24:38;21.50;96.50
46117;DHT22;32591;48.102;11.772;2023-09-30T14:27:06;21.40;96.60
46117;DHT22;32591;48.102;11.772;2023-09-30T14:29:34;21.20;97.00
46117;DHT22;32591;48.102;11.772;2023-09-30T14:32:01;21.30;97.30
46117;DHT22;32591;48.102;11.772;2023-09-30T14:34:28;21.10;97.20
46117;DHT22;32591;48.102;11.772;2023-09-30T14:36:55;21.00;97.80
46117;DHT22;32591;48.102;11.772;2023-09-30T14:39:22;20.90;98.00
46117;DHT22;32591;48.102;11.772;2023-09-30T14:41:49;21.00;97.70
46117;DHT22;32591;48.102;11.772;2023-09-30T14:44:18;21.00;97.60
46117;DHT22;32591;48.102;11.772;2023-09-30T14:46:47;21.00;97.30
46117;DHT22;32591;48.102;11.772;2023-09-30T14:49:14;20.90;97.50
46117;DHT22;32591;48.102;11.772;2023-09-30T14:51:41;20.70;97.60
46117;DHT22;32591;48.102;11.772;2023-09-30T14:54:09;20.50;97.80
46117;DHT22;32591;48.102;11.772;2023-09-30T14:56:36;20.40;98.50
46117;DHT22;32591;48.102;11.772;2023-09-30T14:59:03;20.30;98.80
46117;DHT22;32591;48.102;11.772;2023-09-30T15:01:32;20.40;98.00
46117;DHT22;32591;48.102;11.772;2023-09-30T15:03:59;20.40;98.60
46117;DHT22;32591;48.102;11.772;2023-09-30T15:06:26;20.40;98.60
46117;DHT22;32591;48.102;11.772;2023-09-30T15:08:54;20.40;98.60
46117;DHT22;32591;48.102;11.772;2023-09-30T15:11:22;20.30;98.60
46117;DHT22;32591;48.102;11.772;2023-09-30T15:13:49;20.20;98.80
46117;DHT22;32591;48.102;11.772;2023-09-30T15:16:17;20.20;99.30
46117;DHT22;32591;48.102;11.772;2023-09-30T15:18:46;20.30;98.70
46117;DHT22;32591;48.102;11.772;2023-09-30T15:21:14;20.40;98.30
46117;DHT22;32591;48.102;11.772;2023-09-30T15:23:41;20.40;98.10